sim
Sign-in with your pilot id or email,
or register
Callsign
Passwort

Schedule Details

Flight Number: OEO7661
Departure: Accra Kotoka International Airport (DGAA) at 22:00
Arrival: Munich Airport (EDDM) at 04:35

Weather Information
Getting current METAR information for DGAA 250800Z 26007KT CAVOK 24/22 Q1016 NOSIG
Getting current METAR information for EDDM 250850Z 28010KT 250V310 9999 -RA FEW018 SCT030 BKN045 10/08 Q1003 RERA NOSIG

Schedule Frequency

Route Map